createdAt,value
2022-09-10T00:01:41.931Z,99794.59
2022-09-10T00:04:12.790Z,99798.56
2022-09-10T00:06:41.381Z,99790.84
2022-09-10T00:09:10.545Z,99788.25
2022-09-10T00:11:41.107Z,99792.22
2022-09-10T00:14:15.242Z,99794.28
2022-09-10T00:16:43.232Z,99790.81
2022-09-10T00:19:11.305Z,99788.03
2022-09-10T00:21:39.022Z,99791.59
2022-09-10T00:24:35.278Z,99787.22
2022-09-10T00:27:03.446Z,99786.75
2022-09-10T00:29:35.479Z,99785.00
2022-09-10T00:32:04.333Z,99793.59
2022-09-10T00:37:25.557Z,99802.44
2022-09-10T00:39:53.832Z,99800.94
2022-09-10T00:42:22.952Z,99794.78
2022-09-10T00:45:02.881Z,99796.56
2022-09-10T00:47:35.456Z,99790.66
2022-09-10T01:02:17.527Z,99793.81
2022-09-10T01:25:32.931Z,99790.66
2022-09-10T01:28:08.309Z,99792.72
2022-09-10T01:30:42.557Z,99797.84
2022-09-10T01:33:16.431Z,99795.22
2022-09-10T01:35:53.613Z,99800.03
2022-09-10T02:59:12.665Z,99786.66
2022-09-10T03:01:42.530Z,99779.59
2022-09-10T03:04:11.283Z,99772.03
2022-09-10T03:06:40.239Z,99776.00
2022-09-10T03:09:09.298Z,99769.69
2022-09-10T03:11:40.714Z,99772.28
2022-09-10T03:26:33.509Z,99779.66
2022-09-10T03:29:01.902Z,99776.22
2022-09-10T03:31:32.712Z,99772.78
2022-09-10T03:34:01.610Z,99773.19
2022-09-10T03:36:31.295Z,99766.47
2022-09-10T03:39:00.148Z,99764.66
2022-09-10T03:41:32.626Z,99769.34
2022-09-10T03:47:05.044Z,99779.41
2022-09-10T03:49:33.994Z,99767.03
2022-09-10T03:52:02.865Z,99782.88
2022-09-10T03:54:33.226Z,99785.34
2022-09-10T03:57:03.343Z,99776.28
2022-09-10T03:59:32.940Z,99784.09
2022-09-10T04:02:03.268Z,99787.81
2022-09-10T04:04:32.505Z,99784.94
2022-09-10T04:10:03.797Z,99772.00
2022-09-10T04:12:33.970Z,99783.31
2022-09-10T04:15:04.657Z,99772.97
2022-09-10T04:17:33.157Z,99767.50
2022-09-10T04:20:01.252Z,99770.63
2022-09-10T04:22:29.250Z,99765.38
2022-09-10T04:24:59.765Z,99771.47
2022-09-10T04:27:28.479Z,99770.81
2022-09-10T04:29:58.967Z,99773.47
2022-09-10T04:32:28.048Z,99770.69
2022-09-10T04:34:56.314Z,99774.56
2022-09-10T04:37:24.621Z,99785.03
2022-09-10T04:39:56.011Z,99788.59
2022-09-10T04:42:24.806Z,99785.31
2022-09-10T04:44:54.122Z,99787.47
2022-09-10T04:47:23.846Z,99782.94
2022-09-10T04:49:51.817Z,99785.84
2022-09-10T04:52:22.849Z,99783.66
2022-09-10T04:54:52.055Z,99784.47
2022-09-10T04:57:20.919Z,99791.34
2022-09-10T04:59:49.349Z,99780.06
2022-09-10T05:02:17.254Z,99786.09
2022-09-10T05:04:47.843Z,99794.22
2022-09-10T05:07:16.712Z,99787.75
2022-09-10T05:09:44.755Z,99787.91
2022-09-10T05:12:17.616Z,99779.06
2022-09-10T05:14:45.792Z,99786.09
2022-09-10T05:17:14.121Z,99785.72
2022-09-10T05:19:42.282Z,99778.13
2022-09-10T06:09:08.808Z,99798.91
2022-09-10T06:11:59.507Z,99795.22
2022-09-10T06:14:29.531Z,99793.13
2022-09-10T06:17:04.503Z,99806.63
2022-09-10T06:22:20.500Z,99812.72
2022-09-10T06:24:53.934Z,99814.34
2022-09-10T06:27:23.444Z,99814.78
2022-09-10T06:29:52.381Z,99819.31
2022-09-10T06:32:20.434Z,99814.91
2022-09-10T06:34:48.771Z,99821.66
2022-09-10T06:37:17.723Z,99820.97
2022-09-10T06:39:46.912Z,99816.16
2022-09-10T06:42:18.061Z,99827.44
2022-09-10T06:45:08.967Z,99827.97
2022-09-10T06:50:53.403Z,99835.13
2022-09-10T06:53:25.663Z,99825.03
2022-09-10T06:55:54.704Z,99832.09
2022-09-10T06:58:25.608Z,99840.09
2022-09-10T07:00:53.964Z,99836.38
2022-09-10T07:03:23.482Z,99840.09
2022-09-10T07:05:54.898Z,99835.41
2022-09-10T07:08:25.572Z,99852.25
2022-09-10T07:11:00.960Z,99837.88
2022-09-10T07:13:30.742Z,99839.53
2022-09-10T07:15:59.413Z,99836.63
2022-09-10T07:18:28.849Z,99844.63
2022-09-10T07:21:08.234Z,99838.97
2022-09-10T07:23:39.271Z,99836.91
2022-09-10T07:26:11.537Z,99831.56
2022-09-10T07:28:47.225Z,99836.53
2022-09-10T07:31:18.718Z,99847.63
2022-09-10T07:33:50.020Z,99843.88
2022-09-10T07:36:20.045Z,99842.91
2022-09-10T07:38:54.155Z,99853.06
2022-09-10T07:41:23.359Z,99851.66
2022-09-10T07:43:56.367Z,99852.81
2022-09-10T07:46:29.482Z,99857.38
2022-09-10T07:48:59.562Z,99860.94
2022-09-10T07:51:32.657Z,99856.75
2022-09-10T07:54:02.020Z,99870.22
2022-09-10T07:56:35.370Z,99868.09
2022-09-10T07:59:08.203Z,99865.72
2022-09-10T08:01:42.148Z,99872.81
2022-09-10T08:04:10.644Z,99868.22
2022-09-10T08:06:40.240Z,99873.19
2022-09-10T08:09:08.278Z,99874.75
2022-09-10T08:11:41.580Z,99872.31
2022-09-10T08:14:14.349Z,99876.97
2022-09-10T08:16:45.263Z,99871.78
2022-09-10T08:19:15.117Z,99882.31
2022-09-10T08:21:44.473Z,99881.22
2022-09-10T08:24:13.323Z,99883.97
2022-09-10T08:26:44.419Z,99883.16
2022-09-10T08:29:14.181Z,99886.59
2022-09-10T08:31:42.458Z,99890.22
2022-09-10T08:34:18.214Z,99890.38
2022-09-10T08:36:53.049Z,99890.56
2022-09-10T08:39:21.624Z,99889.56
2022-09-10T08:41:54.885Z,99884.78
2022-09-10T08:44:35.644Z,99883.88
2022-09-10T08:47:15.113Z,99891.94
2022-09-10T08:49:48.131Z,99885.97
2022-09-10T08:52:22.528Z,99891.59
2022-09-10T08:54:59.534Z,99894.06
2022-09-10T08:57:32.590Z,99899.00
2022-09-10T09:00:03.864Z,99886.81
2022-09-10T09:02:49.680Z,99896.53
2022-09-10T09:05:22.905Z,99902.66
2022-09-10T09:07:54.294Z,99907.03
2022-09-10T09:10:31.443Z,99905.16
2022-09-10T09:13:22.180Z,99901.78
2022-09-10T09:15:58.807Z,99901.16
2022-09-10T09:18:37.328Z,99905.13
2022-09-10T09:21:14.268Z,99908.13
2022-09-10T09:24:09.709Z,99907.47
2022-09-10T09:26:40.392Z,99904.59
2022-09-10T09:29:15.215Z,99913.38
2022-09-10T09:31:49.858Z,99916.22
2022-09-10T09:34:23.748Z,99913.75
2022-09-10T09:36:56.087Z,99910.19
2022-09-10T09:39:31.862Z,99908.00
2022-09-10T09:42:06.129Z,99915.09
2022-09-10T09:44:41.088Z,99910.78
2022-09-10T09:47:11.568Z,99901.38
2022-09-10T09:49:43.179Z,99902.47
2022-09-10T09:52:20.691Z,99896.47
2022-09-10T09:57:42.670Z,99898.69
2022-09-10T10:00:36.334Z,99906.69
2022-09-10T10:03:23.498Z,99901.78
2022-09-10T10:05:51.478Z,99905.44
2022-09-10T10:08:31.185Z,99903.97
2022-09-10T10:10:59.801Z,99900.63
2022-09-10T10:13:37.453Z,99898.53
2022-09-10T10:16:17.335Z,99900.75
2022-09-10T10:18:47.178Z,99897.00
2022-09-10T10:21:18.504Z,99903.28
2022-09-10T10:23:47.213Z,99896.16
2022-09-10T10:26:33.198Z,99897.03
2022-09-10T10:29:06.543Z,99901.41
2022-09-10T10:31:45.225Z,99902.94
2022-09-10T10:34:40.109Z,99901.69
2022-09-10T10:37:15.196Z,99891.38
2022-09-10T10:40:01.576Z,99902.59
2022-09-10T10:42:39.308Z,99898.03
2022-09-10T10:45:35.395Z,99903.78
2022-09-10T10:48:11.950Z,99906.28
2022-09-10T10:50:53.738Z,99909.69
2022-09-10T10:53:41.775Z,99914.84
2022-09-10T10:56:15.836Z,99917.97
2022-09-10T10:58:59.685Z,99912.69
2022-09-10T11:01:30.054Z,99909.38
2022-09-10T11:04:05.335Z,99903.16
2022-09-10T11:06:39.917Z,99906.13
2022-09-10T11:09:14.397Z,99903.47
2022-09-10T11:11:52.371Z,99893.78
2022-09-10T11:14:27.464Z,99890.75
2022-09-10T11:16:58.979Z,99894.97
2022-09-10T11:19:35.892Z,99884.63
2022-09-10T11:22:14.301Z,99891.25
2022-09-10T11:24:49.232Z,99896.00
2022-09-10T11:27:21.491Z,99891.25
2022-09-10T11:29:56.136Z,99885.75
2022-09-10T11:32:30.448Z,99886.81
2022-09-10T11:35:08.622Z,99894.13
2022-09-10T11:37:51.259Z,99889.38
2022-09-10T11:40:24.738Z,99883.59
2022-09-10T11:42:54.165Z,99879.72
2022-09-10T11:45:33.438Z,99872.97
2022-09-10T11:48:10.366Z,99879.13
2022-09-10T11:50:45.594Z,99895.66
2022-09-10T11:53:17.280Z,99905.50
2022-09-10T11:56:02.631Z,99905.56
2022-09-10T11:58:42.074Z,99894.06
2022-09-10T12:01:24.677Z,99890.16
2022-09-10T12:04:22.295Z,99887.38
2022-09-10T12:07:03.427Z,99883.00
2022-09-10T12:09:43.715Z,99881.00
2022-09-10T12:12:19.168Z,99875.69
2022-09-10T12:14:47.747Z,99874.88
2022-09-10T12:17:18.384Z,99884.50
2022-09-10T12:19:49.986Z,99881.03
2022-09-10T12:22:21.599Z,99877.13
2022-09-10T12:24:56.526Z,99886.31
2022-09-10T12:27:44.819Z,99871.84
2022-09-10T12:31:03.064Z,99868.16
2022-09-10T12:34:09.646Z,99857.81
2022-09-10T12:37:18.329Z,99851.41
2022-09-10T12:39:46.848Z,99849.75
2022-09-10T12:42:36.718Z,99854.22
2022-09-10T12:45:04.981Z,99851.88
2022-09-10T12:47:50.506Z,99847.25
2022-09-10T12:50:35.912Z,99854.75
2022-09-10T12:53:38.933Z,99842.19
2022-09-10T12:56:37.868Z,99845.34
2022-09-10T12:59:25.007Z,99836.47
2022-09-10T13:01:53.475Z,99836.41
2022-09-10T13:04:28.555Z,99833.28
2022-09-10T13:07:00.078Z,99840.97
2022-09-10T13:09:31.075Z,99840.53
2022-09-10T13:12:04.628Z,99842.25
2022-09-10T13:14:38.211Z,99838.25
2022-09-10T13:17:07.370Z,99832.47
2022-09-10T13:19:53.759Z,99840.91
2022-09-10T13:23:01.703Z,99841.88
2022-09-10T13:25:40.230Z,99849.59
2022-09-10T13:28:46.400Z,99846.66
2022-09-10T13:31:19.491Z,99838.25
2022-09-10T13:34:18.038Z,99831.94
2022-09-10T13:37:02.198Z,99828.88
2022-09-10T13:39:57.411Z,99832.03
2022-09-10T13:42:46.412Z,99828.88
2022-09-10T13:45:23.689Z,99824.91
2022-09-10T13:47:58.530Z,99811.22
2022-09-10T13:50:31.331Z,99823.25
2022-09-10T13:53:01.820Z,99806.94
2022-09-10T13:55:32.742Z,99809.78
2022-09-10T13:58:06.025Z,99807.63
2022-09-10T14:00:41.899Z,99806.78
2022-09-10T14:03:16.000Z,99791.19
2022-09-10T14:05:48.530Z,99803.16
2022-09-10T14:08:21.575Z,99796.81
2022-09-10T14:10:55.826Z,99803.34
2022-09-10T14:13:29.160Z,99813.34
2022-09-10T14:15:58.803Z,99808.63
2022-09-10T14:18:32.776Z,99811.41
2022-09-10T14:21:01.376Z,99804.16
2022-09-10T14:23:30.181Z,99801.78
2022-09-10T14:26:14.722Z,99799.41
2022-09-10T14:28:54.556Z,99807.72
2022-09-10T14:31:30.058Z,99794.13
2022-09-10T14:33:59.095Z,99798.56
2022-09-10T14:36:34.757Z,99800.28
2022-09-10T14:39:06.378Z,99798.88
2022-09-10T14:41:37.375Z,99790.72
2022-09-10T14:44:30.636Z,99777.06
2022-09-10T14:47:00.828Z,99785.94
2022-09-10T14:49:31.014Z,99780.56
2022-09-10T14:52:01.257Z,99785.66
2022-09-10T14:54:31.071Z,99792.00
2022-09-10T14:57:04.277Z,99783.63
2022-09-10T14:59:34.419Z,99785.56
2022-09-10T15:02:05.230Z,99774.63
2022-09-10T15:04:33.111Z,99778.97
2022-09-10T15:07:02.868Z,99777.72
2022-09-10T15:09:31.311Z,99784.66
2022-09-10T15:12:04.649Z,99770.84
2022-09-10T15:14:33.509Z,99777.06
2022-09-10T15:17:01.565Z,99771.66
2022-09-10T15:19:29.795Z,99765.78
2022-09-10T15:21:58.303Z,99770.75
2022-09-10T15:24:28.370Z,99766.84
2022-09-10T15:26:57.436Z,99777.28
2022-09-10T15:29:27.153Z,99777.53
2022-09-10T15:31:59.535Z,99781.47
2022-09-10T15:34:27.269Z,99805.19
2022-09-10T15:36:55.339Z,99813.13
2022-09-10T15:39:23.371Z,99833.47
2022-09-10T15:41:51.149Z,99822.47
2022-09-10T15:44:18.884Z,99810.75
2022-09-10T15:46:48.087Z,65880.13
2022-09-10T15:49:16.105Z,65880.13
2022-09-10T15:51:44.239Z,65880.13
2022-09-10T15:54:12.879Z,65880.13
2022-09-10T15:56:41.512Z,65880.13
2022-09-10T15:59:11.718Z,65880.13
2022-09-10T16:01:40.173Z,65880.13
2022-09-10T16:04:09.954Z,65880.13
2022-09-10T16:06:40.394Z,65880.13
2022-09-10T16:09:10.293Z,99814.66
2022-09-10T16:11:40.078Z,99815.72
2022-09-10T16:14:09.949Z,99815.38
2022-09-10T16:16:38.577Z,99809.81
2022-09-10T16:19:06.993Z,99816.38
2022-09-10T16:21:38.159Z,99813.97
2022-09-10T16:24:07.883Z,99817.06
2022-09-10T16:26:38.306Z,99821.38
2022-09-10T16:29:07.788Z,99829.59
2022-09-10T16:31:37.507Z,99829.00
2022-09-10T16:34:07.138Z,99825.25
2022-09-10T16:36:38.773Z,99842.56
2022-09-10T16:39:12.374Z,99847.81
2022-09-10T16:41:41.768Z,99841.84
2022-09-10T16:44:11.013Z,99843.38
2022-09-10T16:46:40.100Z,99851.78
2022-09-10T16:49:12.497Z,99857.94
2022-09-10T16:51:42.915Z,99863.06
2022-09-10T16:54:13.483Z,99866.63
2022-09-10T16:56:42.958Z,99866.13
2022-09-10T16:59:14.788Z,99860.03
2022-09-10T17:01:44.504Z,99867.75
2022-09-10T17:04:18.793Z,99861.84
2022-09-10T17:06:51.180Z,99862.75
2022-09-10T17:09:19.853Z,99861.44
2022-09-10T17:11:47.724Z,99861.81
2022-09-10T17:14:15.536Z,99872.00
2022-09-10T17:16:44.821Z,99859.28
2022-09-10T17:19:15.154Z,99867.19
2022-09-10T17:21:47.547Z,99862.44
2022-09-10T17:24:17.876Z,99857.94
2022-09-10T17:26:46.331Z,99862.44
2022-09-10T17:29:16.012Z,99856.22
2022-09-10T17:31:45.075Z,99858.03
2022-09-10T17:34:13.730Z,99864.66
2022-09-10T17:36:42.934Z,99853.63
2022-09-10T17:39:11.211Z,99854.97
2022-09-10T17:41:40.830Z,99864.84
2022-09-10T17:44:09.239Z,99852.69
2022-09-10T17:46:37.634Z,99868.75
2022-09-10T17:49:06.557Z,99864.31
2022-09-10T17:51:37.721Z,99867.97
2022-09-10T17:54:05.686Z,99865.41
2022-09-10T17:56:33.963Z,99868.66
2022-09-10T17:59:06.201Z,99868.97
2022-09-10T18:01:36.298Z,99872.56
2022-09-10T18:04:04.593Z,99877.91
2022-09-10T18:06:33.023Z,99877.38
2022-09-10T18:09:02.034Z,99882.25
2022-09-10T18:11:32.484Z,99879.69
2022-09-10T18:14:01.380Z,99885.47
2022-09-10T18:16:34.894Z,99885.03
2022-09-10T18:19:04.316Z,99881.50
2022-09-10T18:21:34.746Z,99893.44
2022-09-10T18:24:04.437Z,99889.16
2022-09-10T18:26:34.693Z,99891.25
2022-09-10T18:29:06.889Z,99895.56
2022-09-10T18:31:38.948Z,99893.97
2022-09-10T18:34:10.430Z,99898.38
2022-09-10T18:36:38.582Z,99898.41
2022-09-10T18:39:10.657Z,99898.84
2022-09-10T18:41:40.557Z,99893.34
2022-09-10T18:44:12.067Z,99904.25
2022-09-10T18:46:43.009Z,99893.25
2022-09-10T18:49:16.717Z,99892.59
2022-09-10T18:51:48.128Z,99905.94
2022-09-10T18:54:17.394Z,99901.53
2022-09-10T18:56:50.261Z,99908.63
2022-09-10T18:59:20.267Z,99905.28
2022-09-10T19:01:50.991Z,99911.31
2022-09-10T19:04:21.747Z,99918.53
2022-09-10T19:06:50.052Z,99914.91
2022-09-10T19:09:20.545Z,99910.94
2022-09-10T19:11:53.268Z,99910.66
2022-09-10T19:14:23.248Z,99911.66
2022-09-10T19:16:54.269Z,99915.38
2022-09-10T19:19:23.636Z,99907.22
2022-09-10T19:21:54.203Z,99903.88
2022-09-10T19:24:37.910Z,99908.88
2022-09-10T19:27:11.725Z,99915.31
2022-09-10T19:29:42.243Z,99909.31
2022-09-10T19:32:11.858Z,99909.22
2022-09-10T19:34:40.501Z,99914.47
2022-09-10T19:37:09.894Z,99924.38
2022-09-10T19:39:37.698Z,99918.84
2022-09-10T19:42:06.978Z,99916.56
2022-09-10T19:44:35.250Z,99912.88
2022-09-10T19:47:05.675Z,99916.84
2022-09-10T19:49:36.005Z,99913.56
2022-09-10T19:52:05.899Z,99920.69
2022-09-10T19:54:34.578Z,99934.38
2022-09-10T19:57:02.669Z,99919.66
2022-09-10T19:59:32.249Z,99919.00
2022-09-10T20:02:00.709Z,99924.94
2022-09-10T20:04:28.824Z,99935.38
2022-09-10T20:06:59.589Z,99948.63
2022-09-10T20:09:27.507Z,99946.22
2022-09-10T20:11:55.224Z,99946.59
2022-09-10T20:14:24.230Z,99954.34
2022-09-10T20:16:52.754Z,99946.84
2022-09-10T20:19:22.093Z,99948.38
2022-09-10T20:21:51.867Z,99944.22
2022-09-10T20:24:22.713Z,99948.09
2022-09-10T20:26:50.834Z,99947.44
2022-09-10T20:29:20.525Z,99944.13
2022-09-10T20:31:49.488Z,99949.53
2022-09-10T20:34:19.545Z,99950.44
2022-09-10T20:36:48.636Z,99957.72
2022-09-10T20:39:19.021Z,99951.34
2022-09-10T20:41:48.773Z,99957.59
2022-09-10T20:44:20.941Z,99948.09
2022-09-10T20:46:48.666Z,99947.53
2022-09-10T20:49:17.952Z,99949.59
2022-09-10T20:51:46.179Z,99949.19
2022-09-10T20:54:17.437Z,99952.47
2022-09-10T20:56:45.980Z,99955.50
2022-09-10T20:59:17.000Z,99952.84
2022-09-10T21:01:46.437Z,99955.47
2022-09-10T21:04:14.569Z,99959.72
2022-09-10T21:06:43.122Z,99955.97
2022-09-10T21:09:11.379Z,99954.91
2022-09-10T21:11:40.680Z,99962.53
2022-09-10T21:14:09.903Z,99956.34
2022-09-10T21:16:40.047Z,99955.00
2022-09-10T21:19:10.982Z,99956.31
2022-09-10T21:21:40.770Z,99955.09
2022-09-10T21:24:11.614Z,99961.25
2022-09-10T21:26:43.325Z,99952.28
2022-09-10T21:29:14.440Z,99953.41
2022-09-10T21:31:45.383Z,99953.00
2022-09-10T21:34:14.953Z,99954.22
2022-09-10T21:36:43.664Z,99955.44
2022-09-10T21:39:15.435Z,99958.78
2022-09-10T21:41:45.203Z,99956.81
2022-09-10T21:44:15.189Z,99968.00
2022-09-10T21:46:47.719Z,99965.81
2022-09-10T21:49:16.475Z,99958.75
2022-09-10T21:51:45.600Z,99966.34
2022-09-10T21:54:17.262Z,99966.91
2022-09-10T21:56:45.094Z,99966.63
2022-09-10T21:59:14.679Z,99968.00
2022-09-10T22:01:48.825Z,99971.84
2022-09-10T22:04:21.726Z,99974.19
2022-09-10T22:06:52.085Z,99980.13
2022-09-10T22:09:21.593Z,99976.28
2022-09-10T22:11:51.957Z,99978.06
2022-09-10T22:14:22.495Z,99979.88
2022-09-10T22:16:53.995Z,99983.19
2022-09-10T22:19:24.987Z,99974.63
2022-09-10T22:21:57.473Z,99975.59
2022-09-10T22:24:30.403Z,99984.56
2022-09-10T22:26:59.247Z,99980.56
2022-09-10T22:29:27.246Z,99977.41
2022-09-10T22:31:56.885Z,99971.78
2022-09-10T22:34:25.065Z,99977.56
2022-09-10T22:36:53.117Z,99983.03
2022-09-10T22:39:29.954Z,99986.50
2022-09-10T22:41:58.089Z,99985.94
2022-09-10T22:44:26.329Z,99990.78
2022-09-10T22:46:54.135Z,99980.41
2022-09-10T22:49:23.224Z,99989.78
2022-09-10T22:51:51.494Z,99999.44
2022-09-10T22:54:19.808Z,99983.88
2022-09-10T22:56:50.322Z,99989.78
2022-09-10T22:59:18.374Z,99991.31
2022-09-10T23:01:48.604Z,99994.31
2022-09-10T23:04:17.170Z,99994.22
2022-09-10T23:06:46.386Z,100001.53
2022-09-10T23:09:16.601Z,99997.06
2022-09-10T23:11:46.001Z,99999.94
2022-09-10T23:14:18.006Z,100008.50
2022-09-10T23:16:48.361Z,100007.28
2022-09-10T23:19:18.043Z,100010.28
2022-09-10T23:21:49.856Z,100008.75
2022-09-10T23:24:20.371Z,100006.44
2022-09-10T23:26:48.466Z,100005.59
2022-09-10T23:29:17.862Z,100015.81
2022-09-10T23:31:47.918Z,100012.66
2022-09-10T23:34:18.066Z,100017.75
2022-09-10T23:36:49.075Z,100012.94
2022-09-10T23:39:19.876Z,100021.94
2022-09-10T23:41:48.137Z,100020.53
2022-09-10T23:44:16.153Z,100015.13
2022-09-10T23:46:44.540Z,100019.66
2022-09-10T23:49:12.818Z,100024.38
2022-09-10T23:51:42.163Z,100020.63
2022-09-10T23:54:13.594Z,100023.38
2022-09-10T23:56:43.700Z,100017.47
2022-09-10T23:59:12.411Z,100023.38
